Hauptseite
METAR-TAF:

METAR-TAF

Flughäfen :

Flughafen Gran Canaria

Gran Canaria, Spanien

Breite: 27-56N, Länge: 015-23W, Höhe: 23 m

Beobachtung

Neuester Wetterbericht von vor 15 Minuten, um 20:30 UTC
Wind 6 kt aus Nord
Temperatur 20°C
Luftfeuchtigkeit 68%
Luftdruck 1010 hPa
Sichtweite 10 km oder mehr
Leicht bewölkt in der Höhe von 3300 ft

METAR: GCLP 032030Z 01006KT 9999 FEW033 20/14 Q1010 NOSIG

Zeit: 21:45 (20:45 UTC)

Prognose

Neuester Wetterbericht von vor 45 Minuten, um 20:00 UTC
Gültige Prognose vom 03 um 21 UTC bis 04 um 21 UTC
Wind 5 kt aus West/Nordwest
Sichtweite 10 km oder mehr
Leicht bewölkt in der Höhe von 3000 ft
Übergehend zu
vom 04 um 11 UTC bis 04 um 13 UTC
Wind 12 kt aus Nord/Nordost
Übergehend zu
vom 04 um 19 UTC bis 04 um 21 UTC
Wind 5 kt aus West

TAF: GCLP 032000Z 0321/0421 30005KT 9999 FEW030 TX23/0414Z TN17/0406Z BECMG 0411/0413 02012KT BECMG 0419/0421 26005KT

Wetterbeobachtungen und Prognosen von mehr als 4000 Flughäfen (METAR und TAF Bericht).

Die verfügbaren Stationen werden durch gelbe und rote Markierungen auf der Karte dargestellt.

Führen Sie die Maus auf sie, um den Namen der Station zu sehen.

Darauf klicken, um die Beobachtung von Wetterbeobachtungen und Prognosen zu sehen.

Um die Karte zu ändern : klicken Sie auf den grünen Tasten mit einem schwarzen Kreuz Zum Vergrößern, auf den grünen Button mit einem Gedankenstrich zu verkleinern, oder auf die grünen Pfeile für benachbarte Karten.


METAR-TAF: